sensor_id;sensor_type;location;lat;lon;timestamp;P1;durP1;ratioP1;P2;durP2;ratioP2
21741;SDS011;11033;47.490;11.116;2023-08-08T00:02:24;4.30;;;3.40;;
21741;SDS011;11033;47.490;11.116;2023-08-08T00:04:49;3.77;;;3.57;;
21741;SDS011;11033;47.490;11.116;2023-08-08T00:07:15;4.05;;;3.75;;
21741;SDS011;11033;47.490;11.116;2023-08-08T00:09:40;4.07;;;3.57;;
21741;SDS011;11033;47.490;11.116;2023-08-08T00:12:05;5.17;;;3.47;;
21741;SDS011;11033;47.490;11.116;2023-08-08T00:14:31;3.83;;;3.58;;
21741;SDS011;11033;47.490;11.116;2023-08-08T00:16:56;4.37;;;3.97;;
21741;SDS011;11033;47.490;11.116;2023-08-08T00:19:21;3.73;;;3.53;;
21741;SDS011;11033;47.490;11.116;2023-08-08T00:21:46;4.03;;;3.40;;
21741;SDS011;11033;47.490;11.116;2023-08-08T00:24:11;4.10;;;3.80;;
21741;SDS011;11033;47.490;11.116;2023-08-08T00:26:37;4.10;;;3.80;;
21741;SDS011;11033;47.490;11.116;2023-08-08T00:29:02;4.30;;;3.93;;
21741;SDS011;11033;47.490;11.116;2023-08-08T00:31:27;4.27;;;3.87;;
21741;SDS011;11033;47.490;11.116;2023-08-08T00:33:52;4.00;;;3.67;;
21741;SDS011;11033;47.490;11.116;2023-08-08T00:36:17;3.47;;;3.27;;
21741;SDS011;11033;47.490;11.116;2023-08-08T00:38:42;3.60;;;3.40;;
21741;SDS011;11033;47.490;11.116;2023-08-08T00:41:08;3.60;;;3.40;;
21741;SDS011;11033;47.490;11.116;2023-08-08T00:43:33;4.93;;;3.50;;
21741;SDS011;11033;47.490;11.116;2023-08-08T00:45:58;3.70;;;3.30;;
21741;SDS011;11033;47.490;11.116;2023-08-08T00:48:23;4.00;;;3.70;;
21741;SDS011;11033;47.490;11.116;2023-08-08T00:50:48;4.33;;;3.57;;
21741;SDS011;11033;47.490;11.116;2023-08-08T00:53:14;3.97;;;3.67;;
21741;SDS011;11033;47.490;11.116;2023-08-08T00:55:40;5.20;;;3.80;;
21741;SDS011;11033;47.490;11.116;2023-08-08T00:58:05;3.88;;;3.58;;
21741;SDS011;11033;47.490;11.116;2023-08-08T01:00:31;4.07;;;3.78;;
21741;SDS011;11033;47.490;11.116;2023-08-08T01:02:56;4.18;;;3.75;;
21741;SDS011;11033;47.490;11.116;2023-08-08T01:05:21;4.70;;;3.43;;
21741;SDS011;11033;47.490;11.116;2023-08-08T01:08:00;3.65;;;3.35;;
21741;SDS011;11033;47.490;11.116;2023-08-08T01:12:54;3.97;;;3.67;;
21741;SDS011;11033;47.490;11.116;2023-08-08T01:15:21;4.13;;;3.78;;
21741;SDS011;11033;47.490;11.116;2023-08-08T01:17:47;7.32;;;3.60;;
21741;SDS011;11033;47.490;11.116;2023-08-08T01:20:12;4.40;;;4.05;;
21741;SDS011;11033;47.490;11.116;2023-08-08T01:25:25;3.03;;;2.92;;
21741;SDS011;11033;47.490;11.116;2023-08-08T01:27:50;3.63;;;3.33;;
21741;SDS011;11033;47.490;11.116;2023-08-08T01:30:16;3.50;;;3.30;;
21741;SDS011;11033;47.490;11.116;2023-08-08T01:32:41;4.00;;;3.70;;
21741;SDS011;11033;47.490;11.116;2023-08-08T01:35:06;3.87;;;3.50;;
21741;SDS011;11033;47.490;11.116;2023-08-08T01:37:34;3.70;;;3.50;;
21741;SDS011;11033;47.490;11.116;2023-08-08T01:40:00;3.85;;;3.55;;
21741;SDS011;11033;47.490;11.116;2023-08-08T01:42:26;3.63;;;3.42;;
21741;SDS011;11033;47.490;11.116;2023-08-08T01:44:52;4.63;;;3.30;;
21741;SDS011;11033;47.490;11.116;2023-08-08T01:47:18;3.50;;;3.28;;
21741;SDS011;11033;47.490;11.116;2023-08-08T01:49:43;3.13;;;2.93;;
21741;SDS011;11033;47.490;11.116;2023-08-08T01:52:08;3.77;;;3.53;;
21741;SDS011;11033;47.490;11.116;2023-08-08T01:54:33;3.77;;;3.47;;
21741;SDS011;11033;47.490;11.116;2023-08-08T01:56:59;4.00;;;3.70;;
21741;SDS011;11033;47.490;11.116;2023-08-08T01:59:24;3.77;;;3.47;;
21741;SDS011;11033;47.490;11.116;2023-08-08T02:01:49;3.97;;;3.47;;
21741;SDS011;11033;47.490;11.116;2023-08-08T02:04:14;3.67;;;3.37;;
21741;SDS011;11033;47.490;11.116;2023-08-08T02:06:39;3.60;;;3.37;;
21741;SDS011;11033;47.490;11.116;2023-08-08T02:09:05;3.57;;;3.33;;
21741;SDS011;11033;47.490;11.116;2023-08-08T02:11:30;5.50;;;3.35;;
21741;SDS011;11033;47.490;11.116;2023-08-08T02:13:56;3.70;;;3.50;;
21741;SDS011;11033;47.490;11.116;2023-08-08T02:16:21;3.80;;;3.50;;
21741;SDS011;11033;47.490;11.116;2023-08-08T02:18:46;6.07;;;3.63;;
21741;SDS011;11033;47.490;11.116;2023-08-08T02:21:11;3.40;;;3.10;;
21741;SDS011;11033;47.490;11.116;2023-08-08T02:23:36;3.97;;;3.43;;
21741;SDS011;11033;47.490;11.116;2023-08-08T02:26:02;4.10;;;3.47;;
21741;SDS011;11033;47.490;11.116;2023-08-08T02:28:27;3.57;;;3.37;;
21741;SDS011;11033;47.490;11.116;2023-08-08T02:30:52;3.87;;;3.57;;
21741;SDS011;11033;47.490;11.116;2023-08-08T02:33:18;3.50;;;3.20;;
21741;SDS011;11033;47.490;11.116;2023-08-08T02:35:43;3.90;;;3.60;;
21741;SDS011;11033;47.490;11.116;2023-08-08T02:38:08;3.50;;;3.20;;
21741;SDS011;11033;47.490;11.116;2023-08-08T02:40:33;3.93;;;3.73;;
21741;SDS011;11033;47.490;11.116;2023-08-08T02:42:58;3.50;;;3.30;;
21741;SDS011;11033;47.490;11.116;2023-08-08T02:45:24;4.23;;;3.83;;
21741;SDS011;11033;47.490;11.116;2023-08-08T02:47:49;3.43;;;3.23;;
21741;SDS011;11033;47.490;11.116;2023-08-08T02:50:14;3.40;;;3.10;;
21741;SDS011;11033;47.490;11.116;2023-08-08T02:52:39;3.43;;;3.10;;
21741;SDS011;11033;47.490;11.116;2023-08-08T02:55:05;3.20;;;3.00;;
21741;SDS011;11033;47.490;11.116;2023-08-08T02:57:30;3.45;;;3.25;;
21741;SDS011;11033;47.490;11.116;2023-08-08T02:59:55;4.63;;;3.33;;
21741;SDS011;11033;47.490;11.116;2023-08-08T03:02:20;3.77;;;3.30;;
21741;SDS011;11033;47.490;11.116;2023-08-08T03:04:45;3.97;;;3.57;;
21741;SDS011;11033;47.490;11.116;2023-08-08T03:07:10;3.40;;;3.10;;
21741;SDS011;11033;47.490;11.116;2023-08-08T03:09:36;6.30;;;3.20;;
21741;SDS011;11033;47.490;11.116;2023-08-08T03:12:01;3.83;;;3.20;;
21741;SDS011;11033;47.490;11.116;2023-08-08T03:14:26;3.10;;;2.90;;
21741;SDS011;11033;47.490;11.116;2023-08-08T03:16:51;5.43;;;3.70;;
21741;SDS011;11033;47.490;11.116;2023-08-08T03:19:16;3.93;;;3.50;;
21741;SDS011;11033;47.490;11.116;2023-08-08T03:21:41;3.53;;;3.23;;
21741;SDS011;11033;47.490;11.116;2023-08-08T03:24:07;3.50;;;3.20;;
21741;SDS011;11033;47.490;11.116;2023-08-08T03:26:32;4.00;;;3.70;;
21741;SDS011;11033;47.490;11.116;2023-08-08T03:28:57;3.40;;;3.20;;
21741;SDS011;11033;47.490;11.116;2023-08-08T03:31:22;3.90;;;3.63;;
21741;SDS011;11033;47.490;11.116;2023-08-08T03:33:48;3.47;;;3.15;;
21741;SDS011;11033;47.490;11.116;2023-08-08T03:36:14;4.33;;;3.37;;
21741;SDS011;11033;47.490;11.116;2023-08-08T03:38:39;3.70;;;3.10;;
21741;SDS011;11033;47.490;11.116;2023-08-08T03:41:05;3.37;;;3.10;;
21741;SDS011;11033;47.490;11.116;2023-08-08T03:43:30;3.70;;;3.40;;
21741;SDS011;11033;47.490;11.116;2023-08-08T03:45:55;3.43;;;3.13;;
21741;SDS011;11033;47.490;11.116;2023-08-08T03:48:20;3.13;;;2.93;;
21741;SDS011;11033;47.490;11.116;2023-08-08T03:50:45;3.17;;;2.97;;
21741;SDS011;11033;47.490;11.116;2023-08-08T03:53:11;3.35;;;3.15;;
21741;SDS011;11033;47.490;11.116;2023-08-08T03:55:37;3.50;;;3.20;;
21741;SDS011;11033;47.490;11.116;2023-08-08T03:58:02;4.03;;;3.67;;
21741;SDS011;11033;47.490;11.116;2023-08-08T04:00:27;4.35;;;3.20;;
21741;SDS011;11033;47.490;11.116;2023-08-08T04:02:53;5.77;;;3.30;;
21741;SDS011;11033;47.490;11.116;2023-08-08T04:05:18;5.20;;;3.15;;
21741;SDS011;11033;47.490;11.116;2023-08-08T04:07:43;3.53;;;2.90;;
21741;SDS011;11033;47.490;11.116;2023-08-08T04:10:09;4.93;;;2.83;;
21741;SDS011;11033;47.490;11.116;2023-08-08T04:12:34;3.00;;;2.80;;
21741;SDS011;11033;47.490;11.116;2023-08-08T04:14:59;3.40;;;3.10;;
21741;SDS011;11033;47.490;11.116;2023-08-08T04:17:24;4.03;;;3.00;;
21741;SDS011;11033;47.490;11.116;2023-08-08T04:19:50;4.67;;;3.20;;
21741;SDS011;11033;47.490;11.116;2023-08-08T04:22:15;3.15;;;2.95;;
21741;SDS011;11033;47.490;11.116;2023-08-08T04:24:41;4.07;;;3.17;;
21741;SDS011;11033;47.490;11.116;2023-08-08T04:27:06;5.83;;;3.20;;
21741;SDS011;11033;47.490;11.116;2023-08-08T04:29:31;4.13;;;3.10;;
21741;SDS011;11033;47.490;11.116;2023-08-08T04:31:56;3.57;;;3.30;;
21741;SDS011;11033;47.490;11.116;2023-08-08T04:34:21;4.23;;;3.50;;
21741;SDS011;11033;47.490;11.116;2023-08-08T04:36:47;10.60;;;3.80;;
21741;SDS011;11033;47.490;11.116;2023-08-08T04:39:12;6.40;;;3.50;;
21741;SDS011;11033;47.490;11.116;2023-08-08T04:41:37;4.33;;;3.87;;
21741;SDS011;11033;47.490;11.116;2023-08-08T04:44:02;3.73;;;3.30;;
21741;SDS011;11033;47.490;11.116;2023-08-08T04:46:27;5.10;;;3.47;;
21741;SDS011;11033;47.490;11.116;2023-08-08T04:48:52;3.80;;;3.10;;
21741;SDS011;11033;47.490;11.116;2023-08-08T04:51:18;3.53;;;3.23;;
21741;SDS011;11033;47.490;11.116;2023-08-08T04:53:43;6.03;;;3.30;;
21741;SDS011;11033;47.490;11.116;2023-08-08T04:56:08;3.97;;;3.67;;
21741;SDS011;11033;47.490;11.116;2023-08-08T04:58:33;3.30;;;3.10;;
21741;SDS011;11033;47.490;11.116;2023-08-08T05:00:58;4.97;;;3.33;;
21741;SDS011;11033;47.490;11.116;2023-08-08T05:03:24;3.70;;;3.40;;
21741;SDS011;11033;47.490;11.116;2023-08-08T05:05:49;4.18;;;3.72;;
21741;SDS011;11033;47.490;11.116;2023-08-08T05:08:14;5.40;;;3.10;;
21741;SDS011;11033;47.490;11.116;2023-08-08T05:10:39;4.07;;;3.77;;
21741;SDS011;11033;47.490;11.116;2023-08-08T05:13:05;3.77;;;3.23;;
21741;SDS011;11033;47.490;11.116;2023-08-08T05:15:30;3.83;;;3.53;;
21741;SDS011;11033;47.490;11.116;2023-08-08T05:17:55;3.93;;;3.63;;
21741;SDS011;11033;47.490;11.116;2023-08-08T05:20:20;4.07;;;3.60;;
21741;SDS011;11033;47.490;11.116;2023-08-08T05:22:46;5.60;;;3.67;;
21741;SDS011;11033;47.490;11.116;2023-08-08T05:25:11;4.83;;;3.43;;
21741;SDS011;11033;47.490;11.116;2023-08-08T05:27:36;4.77;;;3.77;;
21741;SDS011;11033;47.490;11.116;2023-08-08T05:30:01;5.70;;;4.33;;
21741;SDS011;11033;47.490;11.116;2023-08-08T05:32:27;5.93;;;4.37;;
21741;SDS011;11033;47.490;11.116;2023-08-08T05:34:52;5.80;;;4.80;;
21741;SDS011;11033;47.490;11.116;2023-08-08T05:37:17;5.40;;;4.53;;
21741;SDS011;11033;47.490;11.116;2023-08-08T05:39:42;4.45;;;4.05;;
21741;SDS011;11033;47.490;11.116;2023-08-08T05:42:08;5.38;;;4.40;;
21741;SDS011;11033;47.490;11.116;2023-08-08T05:44:33;6.17;;;4.43;;
21741;SDS011;11033;47.490;11.116;2023-08-08T05:46:58;11.10;;;3.83;;
21741;SDS011;11033;47.490;11.116;2023-08-08T05:49:23;6.60;;;3.97;;
21741;SDS011;11033;47.490;11.116;2023-08-08T05:51:48;4.93;;;3.80;;
21741;SDS011;11033;47.490;11.116;2023-08-08T05:54:14;3.93;;;3.63;;
21741;SDS011;11033;47.490;11.116;2023-08-08T05:56:39;5.00;;;3.70;;
21741;SDS011;11033;47.490;11.116;2023-08-08T05:59:04;5.17;;;3.70;;
21741;SDS011;11033;47.490;11.116;2023-08-08T06:01:30;3.78;;;3.47;;
21741;SDS011;11033;47.490;11.116;2023-08-08T06:03:55;3.33;;;3.13;;
21741;SDS011;11033;47.490;11.116;2023-08-08T06:06:20;4.50;;;3.72;;
21741;SDS011;11033;47.490;11.116;2023-08-08T06:08:45;4.70;;;3.43;;
21741;SDS011;11033;47.490;11.116;2023-08-08T06:11:11;3.40;;;3.10;;
21741;SDS011;11033;47.490;11.116;2023-08-08T06:13:36;4.10;;;3.67;;
21741;SDS011;11033;47.490;11.116;2023-08-08T06:16:01;5.75;;;3.63;;
21741;SDS011;11033;47.490;11.116;2023-08-08T06:18:31;5.47;;;3.60;;
21741;SDS011;11033;47.490;11.116;2023-08-08T06:20:56;3.30;;;3.10;;
21741;SDS011;11033;47.490;11.116;2023-08-08T06:23:21;3.53;;;3.23;;
21741;SDS011;11033;47.490;11.116;2023-08-08T06:25:46;3.80;;;3.50;;
21741;SDS011;11033;47.490;11.116;2023-08-08T06:28:12;3.67;;;3.37;;
21741;SDS011;11033;47.490;11.116;2023-08-08T06:30:37;4.47;;;3.60;;
21741;SDS011;11033;47.490;11.116;2023-08-08T06:33:02;3.70;;;3.43;;
21741;SDS011;11033;47.490;11.116;2023-08-08T06:35:27;4.53;;;3.20;;
21741;SDS011;11033;47.490;11.116;2023-08-08T06:37:52;4.07;;;3.37;;
21741;SDS011;11033;47.490;11.116;2023-08-08T06:40:17;4.50;;;4.10;;
21741;SDS011;11033;47.490;11.116;2023-08-08T06:42:43;4.10;;;3.65;;
21741;SDS011;11033;47.490;11.116;2023-08-08T06:45:08;4.47;;;4.17;;
21741;SDS011;11033;47.490;11.116;2023-08-08T06:47:34;5.95;;;4.40;;
21741;SDS011;11033;47.490;11.116;2023-08-08T06:49:59;5.40;;;4.10;;
21741;SDS011;11033;47.490;11.116;2023-08-08T06:52:25;4.57;;;4.27;;
21741;SDS011;11033;47.490;11.116;2023-08-08T06:54:50;5.33;;;4.83;;
21741;SDS011;11033;47.490;11.116;2023-08-08T06:57:15;5.80;;;4.87;;
21741;SDS011;11033;47.490;11.116;2023-08-08T06:59:40;5.27;;;4.73;;
21741;SDS011;11033;47.490;11.116;2023-08-08T07:02:06;5.30;;;4.80;;
21741;SDS011;11033;47.490;11.116;2023-08-08T07:04:31;5.27;;;4.77;;
21741;SDS011;11033;47.490;11.116;2023-08-08T07:06:57;5.38;;;4.88;;
21741;SDS011;11033;47.490;11.116;2023-08-08T07:09:22;4.63;;;4.22;;
21741;SDS011;11033;47.490;11.116;2023-08-08T07:11:47;4.70;;;4.40;;
21741;SDS011;11033;47.490;11.116;2023-08-08T07:14:12;8.27;;;4.83;;
21741;SDS011;11033;47.490;11.116;2023-08-08T07:16:38;5.50;;;4.70;;
21741;SDS011;11033;47.490;11.116;2023-08-08T07:19:03;5.47;;;5.07;;
21741;SDS011;11033;47.490;11.116;2023-08-08T07:21:28;4.83;;;4.47;;
21741;SDS011;11033;47.490;11.116;2023-08-08T07:23:54;5.70;;;5.30;;
21741;SDS011;11033;47.490;11.116;2023-08-08T07:26:19;5.20;;;4.90;;
21741;SDS011;11033;47.490;11.116;2023-08-08T07:28:44;4.97;;;4.67;;
21741;SDS011;11033;47.490;11.116;2023-08-08T07:31:10;6.07;;;5.47;;
21741;SDS011;11033;47.490;11.116;2023-08-08T07:33:35;7.43;;;5.20;;
21741;SDS011;11033;47.490;11.116;2023-08-08T07:36:00;5.87;;;5.37;;
21741;SDS011;11033;47.490;11.116;2023-08-08T07:38:25;4.70;;;4.50;;
21741;SDS011;11033;47.490;11.116;2023-08-08T07:40:50;5.93;;;5.43;;
21741;SDS011;11033;47.490;11.116;2023-08-08T07:43:15;5.50;;;5.10;;
21741;SDS011;11033;47.490;11.116;2023-08-08T07:45:41;5.97;;;5.47;;
21741;SDS011;11033;47.490;11.116;2023-08-08T07:48:06;5.38;;;5.00;;
21741;SDS011;11033;47.490;11.116;2023-08-08T07:50:31;5.53;;;5.23;;
21741;SDS011;11033;47.490;11.116;2023-08-08T07:52:57;5.80;;;5.40;;
21741;SDS011;11033;47.490;11.116;2023-08-08T07:55:22;5.35;;;5.05;;
21741;SDS011;11033;47.490;11.116;2023-08-08T07:57:47;6.13;;;5.73;;
21741;SDS011;11033;47.490;11.116;2023-08-08T08:00:12;5.87;;;5.47;;
21741;SDS011;11033;47.490;11.116;2023-08-08T08:02:38;6.15;;;5.65;;
21741;SDS011;11033;47.490;11.116;2023-08-08T08:05:04;5.72;;;5.20;;
21741;SDS011;11033;47.490;11.116;2023-08-08T08:07:33;6.00;;;5.60;;
21741;SDS011;11033;47.490;11.116;2023-08-08T08:09:58;6.20;;;5.90;;
21741;SDS011;11033;47.490;11.116;2023-08-08T08:12:24;6.68;;;6.18;;
21741;SDS011;11033;47.490;11.116;2023-08-08T08:14:49;6.27;;;5.77;;
21741;SDS011;11033;47.490;11.116;2023-08-08T08:17:14;7.00;;;6.50;;
21741;SDS011;11033;47.490;11.116;2023-08-08T08:19:39;6.17;;;5.83;;
21741;SDS011;11033;47.490;11.116;2023-08-08T08:22:04;7.10;;;6.60;;
21741;SDS011;11033;47.490;11.116;2023-08-08T08:24:30;6.70;;;6.30;;
21741;SDS011;11033;47.490;11.116;2023-08-08T08:26:55;6.38;;;5.93;;
21741;SDS011;11033;47.490;11.116;2023-08-08T08:29:20;6.97;;;6.57;;
21741;SDS011;11033;47.490;11.116;2023-08-08T08:31:45;7.37;;;6.70;;
21741;SDS011;11033;47.490;11.116;2023-08-08T08:34:10;6.73;;;6.33;;
21741;SDS011;11033;47.490;11.116;2023-08-08T08:36:36;7.50;;;6.90;;
21741;SDS011;11033;47.490;11.116;2023-08-08T08:39:01;6.75;;;6.25;;
21741;SDS011;11033;47.490;11.116;2023-08-08T08:41:27;7.03;;;6.65;;
21741;SDS011;11033;47.490;11.116;2023-08-08T08:43:53;7.43;;;6.82;;
21741;SDS011;11033;47.490;11.116;2023-08-08T08:46:20;9.93;;;6.95;;
21741;SDS011;11033;47.490;11.116;2023-08-08T08:48:45;7.60;;;7.20;;
21741;SDS011;11033;47.490;11.116;2023-08-08T08:51:11;7.30;;;6.97;;
21741;SDS011;11033;47.490;11.116;2023-08-08T08:53:37;7.40;;;7.00;;
21741;SDS011;11033;47.490;11.116;2023-08-08T08:56:04;13.82;;;7.85;;
21741;SDS011;11033;47.490;11.116;2023-08-08T08:58:29;6.90;;;6.37;;
21741;SDS011;11033;47.490;11.116;2023-08-08T09:00:55;7.00;;;6.60;;
21741;SDS011;11033;47.490;11.116;2023-08-08T09:03:20;7.50;;;7.10;;
21741;SDS011;11033;47.490;11.116;2023-08-08T09:05:45;7.70;;;7.20;;
21741;SDS011;11033;47.490;11.116;2023-08-08T09:08:11;8.40;;;7.83;;
21741;SDS011;11033;47.490;11.116;2023-08-08T09:10:37;7.68;;;7.15;;
21741;SDS011;11033;47.490;11.116;2023-08-08T09:13:02;11.30;;;7.43;;
21741;SDS011;11033;47.490;11.116;2023-08-08T09:15:31;8.50;;;7.93;;
21741;SDS011;11033;47.490;11.116;2023-08-08T09:17:56;8.00;;;7.60;;
21741;SDS011;11033;47.490;11.116;2023-08-08T09:20:22;8.10;;;7.43;;
21741;SDS011;11033;47.490;11.116;2023-08-08T09:22:47;8.90;;;8.30;;
21741;SDS011;11033;47.490;11.116;2023-08-08T09:25:13;7.75;;;7.35;;
21741;SDS011;11033;47.490;11.116;2023-08-08T09:27:39;8.40;;;7.90;;
21741;SDS011;11033;47.490;11.116;2023-08-08T09:30:05;8.18;;;7.78;;
21741;SDS011;11033;47.490;11.116;2023-08-08T09:32:31;7.68;;;7.28;;
21741;SDS011;11033;47.490;11.116;2023-08-08T09:34:56;7.80;;;7.40;;
21741;SDS011;11033;47.490;11.116;2023-08-08T09:37:22;8.18;;;7.75;;
21741;SDS011;11033;47.490;11.116;2023-08-08T09:39:58;8.07;;;7.57;;
21741;SDS011;11033;47.490;11.116;2023-08-08T09:42:25;8.57;;;7.97;;
21741;SDS011;11033;47.490;11.116;2023-08-08T09:44:50;8.27;;;7.88;;
21741;SDS011;11033;47.490;11.116;2023-08-08T09:47:15;8.43;;;7.93;;
21741;SDS011;11033;47.490;11.116;2023-08-08T09:49:41;7.80;;;7.40;;
21741;SDS011;11033;47.490;11.116;2023-08-08T09:52:07;8.40;;;8.00;;
21741;SDS011;11033;47.490;11.116;2023-08-08T09:54:32;7.70;;;7.28;;
21741;SDS011;11033;47.490;11.116;2023-08-08T09:56:58;8.35;;;7.90;;
21741;SDS011;11033;47.490;11.116;2023-08-08T09:59:23;8.23;;;7.77;;
21741;SDS011;11033;47.490;11.116;2023-08-08T10:01:49;8.48;;;8.07;;
21741;SDS011;11033;47.490;11.116;2023-08-08T10:04:15;8.18;;;7.70;;
21741;SDS011;11033;47.490;11.116;2023-08-08T10:06:41;8.30;;;7.80;;
21741;SDS011;11033;47.490;11.116;2023-08-08T10:09:06;8.35;;;7.78;;
21741;SDS011;11033;47.490;11.116;2023-08-08T10:11:32;8.10;;;7.70;;
21741;SDS011;11033;47.490;11.116;2023-08-08T10:13:57;8.13;;;7.53;;
21741;SDS011;11033;47.490;11.116;2023-08-08T10:16:25;8.32;;;7.72;;
21741;SDS011;11033;47.490;11.116;2023-08-08T10:18:57;8.73;;;8.33;;
21741;SDS011;11033;47.490;11.116;2023-08-08T10:21:23;8.57;;;8.07;;
21741;SDS011;11033;47.490;11.116;2023-08-08T10:23:49;9.82;;;8.35;;
21741;SDS011;11033;47.490;11.116;2023-08-08T10:26:20;8.40;;;7.97;;
21741;SDS011;11033;47.490;11.116;2023-08-08T10:28:53;8.75;;;8.25;;
21741;SDS011;11033;47.490;11.116;2023-08-08T10:31:19;8.52;;;7.75;;
21741;SDS011;11033;47.490;11.116;2023-08-08T10:33:45;8.70;;;8.18;;
21741;SDS011;11033;47.490;11.116;2023-08-08T10:36:10;8.30;;;7.90;;
21741;SDS011;11033;47.490;11.116;2023-08-08T10:38:53;7.53;;;7.23;;
21741;SDS011;11033;47.490;11.116;2023-08-08T10:41:22;8.93;;;8.52;;
21741;SDS011;11033;47.490;11.116;2023-08-08T10:43:54;8.30;;;8.00;;
21741;SDS011;11033;47.490;11.116;2023-08-08T10:48:53;10.48;;;9.95;;
21741;SDS011;11033;47.490;11.116;2023-08-08T10:51:18;9.10;;;8.60;;
21741;SDS011;11033;47.490;11.116;2023-08-08T10:53:44;9.30;;;8.70;;
21741;SDS011;11033;47.490;11.116;2023-08-08T10:56:12;9.07;;;8.68;;
21741;SDS011;11033;47.490;11.116;2023-08-08T10:58:38;8.77;;;8.32;;
21741;SDS011;11033;47.490;11.116;2023-08-08T11:01:04;9.35;;;8.60;;
21741;SDS011;11033;47.490;11.116;2023-08-08T11:03:38;9.75;;;9.07;;
21741;SDS011;11033;47.490;11.116;2023-08-08T11:06:04;8.77;;;8.38;;
21741;SDS011;11033;47.490;11.116;2023-08-08T11:08:30;9.20;;;8.70;;
21741;SDS011;11033;47.490;11.116;2023-08-08T11:10:56;9.27;;;8.82;;
21741;SDS011;11033;47.490;11.116;2023-08-08T11:13:21;9.23;;;8.82;;
21741;SDS011;11033;47.490;11.116;2023-08-08T11:15:46;9.50;;;9.00;;
21741;SDS011;11033;47.490;11.116;2023-08-08T11:18:11;9.27;;;8.87;;
21741;SDS011;11033;47.490;11.116;2023-08-08T11:20:38;9.73;;;9.23;;
21741;SDS011;11033;47.490;11.116;2023-08-08T11:23:03;10.07;;;9.48;;
21741;SDS011;11033;47.490;11.116;2023-08-08T11:25:30;9.85;;;9.15;;
21741;SDS011;11033;47.490;11.116;2023-08-08T11:27:56;9.63;;;9.00;;
21741;SDS011;11033;47.490;11.116;2023-08-08T11:30:22;9.27;;;8.68;;
21741;SDS011;11033;47.490;11.116;2023-08-08T11:32:47;8.52;;;8.15;;
21741;SDS011;11033;47.490;11.116;2023-08-08T11:35:16;9.50;;;8.90;;
21741;SDS011;11033;47.490;11.116;2023-08-08T11:37:42;9.18;;;8.77;;
21741;SDS011;11033;47.490;11.116;2023-08-08T11:40:08;9.43;;;8.80;;
21741;SDS011;11033;47.490;11.116;2023-08-08T11:42:33;9.52;;;9.02;;
21741;SDS011;11033;47.490;11.116;2023-08-08T11:44:59;10.95;;;10.45;;
21741;SDS011;11033;47.490;11.116;2023-08-08T11:47:25;9.85;;;9.43;;
21741;SDS011;11033;47.490;11.116;2023-08-08T11:49:51;10.63;;;10.02;;
21741;SDS011;11033;47.490;11.116;2023-08-08T11:52:17;10.20;;;9.70;;
21741;SDS011;11033;47.490;11.116;2023-08-08T11:54:42;9.80;;;9.30;;
21741;SDS011;11033;47.490;11.116;2023-08-08T11:57:08;10.37;;;9.87;;
21741;SDS011;11033;47.490;11.116;2023-08-08T11:59:33;9.70;;;9.10;;
21741;SDS011;11033;47.490;11.116;2023-08-08T12:02:00;9.88;;;9.38;;
21741;SDS011;11033;47.490;11.116;2023-08-08T12:04:25;9.67;;;9.27;;
21741;SDS011;11033;47.490;11.116;2023-08-08T12:06:50;10.20;;;9.80;;
21741;SDS011;11033;47.490;11.116;2023-08-08T12:09:28;10.05;;;9.45;;
21741;SDS011;11033;47.490;11.116;2023-08-08T12:11:53;10.32;;;9.63;;
21741;SDS011;11033;47.490;11.116;2023-08-08T12:14:18;10.43;;;9.73;;
21741;SDS011;11033;47.490;11.116;2023-08-08T12:16:43;10.07;;;9.57;;
21741;SDS011;11033;47.490;11.116;2023-08-08T12:19:08;10.30;;;9.90;;
21741;SDS011;11033;47.490;11.116;2023-08-08T12:21:36;10.55;;;9.95;;
21741;SDS011;11033;47.490;11.116;2023-08-08T12:24:01;10.48;;;9.98;;
21741;SDS011;11033;47.490;11.116;2023-08-08T12:26:26;9.40;;;9.00;;
21741;SDS011;11033;47.490;11.116;2023-08-08T12:28:51;10.02;;;9.52;;
21741;SDS011;11033;47.490;11.116;2023-08-08T12:31:18;10.77;;;10.27;;
21741;SDS011;11033;47.490;11.116;2023-08-08T12:33:44;10.43;;;9.93;;
21741;SDS011;11033;47.490;11.116;2023-08-08T12:36:10;10.93;;;10.43;;
21741;SDS011;11033;47.490;11.116;2023-08-08T12:38:35;10.87;;;10.30;;
21741;SDS011;11033;47.490;11.116;2023-08-08T12:41:01;10.83;;;10.23;;
21741;SDS011;11033;47.490;11.116;2023-08-08T12:43:26;10.57;;;10.07;;
21741;SDS011;11033;47.490;11.116;2023-08-08T12:45:52;10.90;;;10.40;;
21741;SDS011;11033;47.490;11.116;2023-08-08T12:48:17;11.03;;;10.53;;
21741;SDS011;11033;47.490;11.116;2023-08-08T12:50:42;10.97;;;10.47;;
21741;SDS011;11033;47.490;11.116;2023-08-08T12:53:07;10.73;;;10.23;;
21741;SDS011;11033;47.490;11.116;2023-08-08T12:55:33;11.65;;;11.05;;
21741;SDS011;11033;47.490;11.116;2023-08-08T12:57:58;12.18;;;11.48;;
21741;SDS011;11033;47.490;11.116;2023-08-08T13:00:23;12.48;;;11.88;;
21741;SDS011;11033;47.490;11.116;2023-08-08T13:02:48;12.40;;;11.90;;
21741;SDS011;11033;47.490;11.116;2023-08-08T13:05:14;11.90;;;11.30;;
21741;SDS011;11033;47.490;11.116;2023-08-08T13:07:39;11.30;;;10.80;;
21741;SDS011;11033;47.490;11.116;2023-08-08T13:10:04;11.17;;;10.67;;
21741;SDS011;11033;47.490;11.116;2023-08-08T13:12:30;11.75;;;11.25;;
21741;SDS011;11033;47.490;11.116;2023-08-08T13:14:55;11.27;;;10.77;;
21741;SDS011;11033;47.490;11.116;2023-08-08T13:17:20;12.43;;;11.85;;
21741;SDS011;11033;47.490;11.116;2023-08-08T13:19:46;11.47;;;10.90;;
21741;SDS011;11033;47.490;11.116;2023-08-08T13:22:11;10.93;;;10.30;;
21741;SDS011;11033;47.490;11.116;2023-08-08T13:24:37;10.65;;;10.05;;
21741;SDS011;11033;47.490;11.116;2023-08-08T13:27:02;16.03;;;15.13;;
21741;SDS011;11033;47.490;11.116;2023-08-08T13:29:27;9.80;;;9.40;;
21741;SDS011;11033;47.490;11.116;2023-08-08T13:31:53;9.40;;;9.00;;
21741;SDS011;11033;47.490;11.116;2023-08-08T13:34:18;9.70;;;9.20;;
21741;SDS011;11033;47.490;11.116;2023-08-08T13:36:43;10.30;;;9.70;;
21741;SDS011;11033;47.490;11.116;2023-08-08T13:39:08;9.83;;;9.43;;
21741;SDS011;11033;47.490;11.116;2023-08-08T13:41:36;10.10;;;9.60;;
21741;SDS011;11033;47.490;11.116;2023-08-08T13:44:01;10.07;;;9.67;;
21741;SDS011;11033;47.490;11.116;2023-08-08T13:46:27;11.20;;;10.70;;
21741;SDS011;11033;47.490;11.116;2023-08-08T13:48:52;12.17;;;11.67;;
21741;SDS011;11033;47.490;11.116;2023-08-08T13:51:17;11.63;;;11.13;;
21741;SDS011;11033;47.490;11.116;2023-08-08T13:53:43;13.00;;;12.50;;
21741;SDS011;11033;47.490;11.116;2023-08-08T13:56:09;13.55;;;12.95;;
21741;SDS011;11033;47.490;11.116;2023-08-08T13:58:35;13.40;;;12.90;;
21741;SDS011;11033;47.490;11.116;2023-08-08T14:01:01;13.80;;;13.20;;
21741;SDS011;11033;47.490;11.116;2023-08-08T14:03:26;14.68;;;14.07;;
21741;SDS011;11033;47.490;11.116;2023-08-08T14:05:51;15.77;;;14.83;;
21741;SDS011;11033;47.490;11.116;2023-08-08T14:08:17;15.25;;;14.65;;
21741;SDS011;11033;47.490;11.116;2023-08-08T14:10:42;17.05;;;16.15;;
21741;SDS011;11033;47.490;11.116;2023-08-08T14:13:08;15.37;;;14.67;;
21741;SDS011;11033;47.490;11.116;2023-08-08T14:15:33;15.40;;;14.70;;
21741;SDS011;11033;47.490;11.116;2023-08-08T14:17:58;14.75;;;14.15;;
21741;SDS011;11033;47.490;11.116;2023-08-08T14:20:23;15.32;;;14.73;;
21741;SDS011;11033;47.490;11.116;2023-08-08T14:22:49;14.00;;;13.40;;
21741;SDS011;11033;47.490;11.116;2023-08-08T14:25:14;13.33;;;12.77;;
21741;SDS011;11033;47.490;11.116;2023-08-08T14:27:39;13.20;;;12.70;;
21741;SDS011;11033;47.490;11.116;2023-08-08T14:30:05;13.00;;;12.40;;